createdAt,value
2023-03-30T00:00:46.869Z,67.10
2023-03-30T00:05:52.128Z,67.23
2023-03-30T00:11:17.789Z,67.63
2023-03-30T00:16:20.866Z,67.69
2023-03-30T00:21:23.237Z,67.88
2023-03-30T00:26:25.100Z,67.97
2023-03-30T00:31:27.604Z,68.03
2023-03-30T00:36:30.618Z,68.32
2023-03-30T00:41:34.033Z,68.28
2023-03-30T00:46:36.131Z,68.44
2023-03-30T00:51:40.497Z,68.63
2023-03-30T00:56:42.761Z,68.65
2023-03-30T01:01:50.230Z,68.88
2023-03-30T01:06:55.536Z,69.04
2023-03-30T01:11:58.159Z,69.19
2023-03-30T01:17:05.702Z,69.35
2023-03-30T01:22:45.296Z,69.64
2023-03-30T01:27:55.691Z,69.59
2023-03-30T01:33:37.349Z,69.78
2023-03-30T01:38:56.097Z,69.77
2023-03-30T01:44:41.890Z,70.15
2023-03-30T01:50:02.164Z,70.12
2023-03-30T01:55:14.299Z,70.23
2023-03-30T02:00:20.627Z,70.12
2023-03-30T02:05:23.820Z,70.32
2023-03-30T02:10:30.687Z,70.36
2023-03-30T02:15:38.846Z,70.33
2023-03-30T02:20:40.708Z,70.26
2023-03-30T02:25:44.612Z,70.39
2023-03-30T02:30:47.672Z,70.41
2023-03-30T02:36:02.122Z,70.48
2023-03-30T02:41:19.179Z,70.49
2023-03-30T02:46:31.291Z,70.69
2023-03-30T02:51:47.154Z,70.61
2023-03-30T02:57:24.026Z,70.82
2023-03-30T03:02:37.460Z,70.57
2023-03-30T03:07:54.064Z,70.49
2023-03-30T03:12:59.116Z,70.76
2023-03-30T03:18:01.121Z,70.82
2023-03-30T03:23:03.614Z,70.86
2023-03-30T03:28:13.538Z,70.93
2023-03-30T03:33:22.139Z,71.10
2023-03-30T03:38:49.877Z,70.91
2023-03-30T03:43:52.452Z,70.89
2023-03-30T03:48:54.877Z,70.99
2023-03-30T03:53:56.785Z,70.86
2023-03-30T03:58:59.363Z,70.96
2023-03-30T04:04:01.269Z,70.92
2023-03-30T04:09:03.331Z,70.82
2023-03-30T04:14:31.217Z,70.92
2023-03-30T04:19:56.645Z,70.50
2023-03-30T04:25:19.172Z,70.71
2023-03-30T04:30:24.952Z,70.70
2023-03-30T04:35:27.197Z,70.67
2023-03-30T04:41:02.647Z,70.45
2023-03-30T04:46:19.837Z,70.50
2023-03-30T04:51:37.827Z,70.31
2023-03-30T04:56:51.867Z,70.50
2023-03-30T05:02:18.907Z,71.27
2023-03-30T05:07:30.721Z,71.13
2023-03-30T05:12:42.212Z,70.75
2023-03-30T05:17:49.965Z,70.52
2023-03-30T05:23:17.694Z,70.31
2023-03-30T05:28:40.460Z,70.19
2023-03-30T05:34:11.714Z,70.17
2023-03-30T05:39:16.432Z,70.03
2023-03-30T05:44:37.082Z,70.09
2023-03-30T05:49:57.704Z,69.94
2023-03-30T05:55:05.027Z,70.00
2023-03-30T06:00:26.372Z,70.00
2023-03-30T06:05:40.032Z,69.77
2023-03-30T06:10:42.574Z,69.85
2023-03-30T06:15:47.449Z,69.75
2023-03-30T06:20:54.766Z,69.37
2023-03-30T06:26:01.555Z,69.27
2023-03-30T06:31:09.781Z,69.05
2023-03-30T06:36:14.485Z,68.54
2023-03-30T06:41:18.086Z,68.16
2023-03-30T06:46:23.104Z,67.77
2023-03-30T06:51:26.129Z,67.42
2023-03-30T06:56:28.708Z,67.31
2023-03-30T07:02:01.261Z,67.21
2023-03-30T07:07:21.984Z,67.21
2023-03-30T07:12:24.259Z,67.68
2023-03-30T07:17:28.207Z,67.78
2023-03-30T07:22:30.504Z,67.70
2023-03-30T07:27:32.602Z,67.74
2023-03-30T07:32:34.973Z,67.91
2023-03-30T07:37:40.174Z,67.95
2023-03-30T07:42:42.306Z,67.77
2023-03-30T07:47:44.856Z,67.84
2023-03-30T07:52:46.769Z,68.15
2023-03-30T07:57:49.672Z,68.46
2023-03-30T08:02:52.084Z,68.57
2023-03-30T08:07:55.430Z,68.68
2023-03-30T08:13:04.729Z,68.75
2023-03-30T08:18:08.502Z,68.73
2023-03-30T08:23:13.731Z,68.78
2023-03-30T08:28:15.609Z,68.94
2023-03-30T08:33:18.106Z,68.68
2023-03-30T08:38:20.009Z,68.45
2023-03-30T08:43:25.973Z,68.12
2023-03-30T08:48:32.435Z,68.38
2023-03-30T08:53:34.787Z,68.22
2023-03-30T08:58:49.684Z,68.11
2023-03-30T09:04:06.583Z,68.43
2023-03-30T09:09:13.637Z,68.54
2023-03-30T09:14:41.952Z,68.29
2023-03-30T09:19:57.380Z,68.74
2023-03-30T09:24:59.906Z,68.50
2023-03-30T09:30:16.025Z,68.56
2023-03-30T09:35:25.003Z,68.59
2023-03-30T09:40:58.462Z,68.61
2023-03-30T09:46:05.286Z,69.08
2023-03-30T09:51:22.978Z,69.64
2023-03-30T09:56:39.021Z,70.21
2023-03-30T10:01:42.670Z,70.28
2023-03-30T10:06:48.417Z,70.95
2023-03-30T10:11:52.893Z,71.28
2023-03-30T10:16:56.213Z,71.89
2023-03-30T10:21:59.969Z,72.38
2023-03-30T10:27:09.996Z,73.36
2023-03-30T10:32:15.789Z,73.63
2023-03-30T10:37:34.663Z,74.07
2023-03-30T10:42:37.149Z,73.93
2023-03-30T10:47:53.074Z,74.04
2023-03-30T10:53:00.858Z,74.03
2023-03-30T10:58:45.160Z,74.02
2023-03-30T11:03:54.017Z,74.11
2023-03-30T11:08:59.237Z,73.69
2023-03-30T11:14:07.297Z,73.72
2023-03-30T11:19:23.125Z,73.56
2023-03-30T11:24:27.856Z,73.59
2023-03-30T11:29:44.894Z,73.41
2023-03-30T11:35:01.870Z,73.25
2023-03-30T11:40:28.646Z,73.16
2023-03-30T11:45:45.852Z,73.11
2023-03-30T11:51:14.149Z,72.54
2023-03-30T11:56:34.388Z,72.40
2023-03-30T12:01:57.176Z,71.73
2023-03-30T12:07:01.607Z,71.52
2023-03-30T12:12:16.182Z,70.97
2023-03-30T12:17:50.259Z,70.61
2023-03-30T12:23:17.294Z,70.38
2023-03-30T12:28:29.823Z,70.45
2023-03-30T12:33:49.781Z,70.06
2023-03-30T12:39:02.396Z,69.50
2023-03-30T12:44:51.545Z,68.82
2023-03-30T12:49:56.161Z,68.61
2023-03-30T12:54:57.942Z,67.82
2023-03-30T13:00:29.372Z,67.04
2023-03-30T13:05:36.498Z,67.15
2023-03-30T13:10:42.286Z,66.59
2023-03-30T13:15:51.014Z,66.38
2023-03-30T13:20:55.867Z,65.92
2023-03-30T13:25:57.745Z,66.02
2023-03-30T13:31:16.775Z,65.94
2023-03-30T13:36:24.985Z,66.43
2023-03-30T13:41:45.535Z,66.29
2023-03-30T13:47:01.620Z,66.44
2023-03-30T13:52:10.004Z,66.41
2023-03-30T13:57:19.408Z,66.30
2023-03-30T14:02:23.174Z,66.32
2023-03-30T14:07:25.763Z,66.00
2023-03-30T14:12:27.749Z,65.44
2023-03-30T14:17:29.865Z,65.19
2023-03-30T14:22:41.208Z,64.85
2023-03-30T14:27:43.362Z,64.85
2023-03-30T14:32:45.783Z,64.52
2023-03-30T14:37:52.209Z,64.18
2023-03-30T14:42:55.099Z,63.48
2023-03-30T14:47:57.198Z,62.91
2023-03-30T14:53:00.641Z,63.33
2023-03-30T14:58:03.461Z,63.73
2023-03-30T15:03:06.402Z,63.18
2023-03-30T15:08:20.204Z,63.52
2023-03-30T15:13:31.943Z,63.73
2023-03-30T15:18:36.526Z,64.07
2023-03-30T15:23:41.883Z,64.13
2023-03-30T15:28:51.579Z,64.50
2023-03-30T15:33:56.051Z,64.95
2023-03-30T15:38:59.129Z,65.38
2023-03-30T15:44:21.505Z,65.70
2023-03-30T15:49:39.545Z,65.53
2023-03-30T15:54:44.731Z,65.29
2023-03-30T15:59:53.429Z,63.52
2023-03-30T16:04:55.392Z,64.21
2023-03-30T16:09:57.289Z,66.09
2023-03-30T16:14:59.288Z,67.77
2023-03-30T16:20:01.332Z,68.36
2023-03-30T16:25:03.912Z,68.65
2023-03-30T16:30:37.566Z,69.50
2023-03-30T16:35:40.062Z,69.64
2023-03-30T16:40:48.893Z,69.89
2023-03-30T16:45:51.665Z,70.00
2023-03-30T16:50:56.880Z,69.97
2023-03-30T16:55:58.918Z,69.93
2023-03-30T17:01:04.485Z,69.96
2023-03-30T17:06:07.769Z,70.16
2023-03-30T17:11:10.976Z,69.76
2023-03-30T17:16:14.757Z,69.78
2023-03-30T17:21:16.840Z,69.52
2023-03-30T17:26:19.561Z,69.43
2023-03-30T17:31:22.360Z,69.24
2023-03-30T17:36:26.786Z,69.02
2023-03-30T17:41:28.911Z,68.82
2023-03-30T17:46:32.535Z,68.73
2023-03-30T17:51:34.461Z,68.72
2023-03-30T17:56:36.296Z,68.55
2023-03-30T18:01:39.827Z,68.47
2023-03-30T18:06:41.941Z,68.44
2023-03-30T18:11:44.396Z,68.52
2023-03-30T18:16:46.256Z,68.57
2023-03-30T18:21:48.144Z,68.56
2023-03-30T18:26:50.048Z,68.78
2023-03-30T18:31:52.015Z,68.60
2023-03-30T18:36:53.796Z,68.60
2023-03-30T18:41:55.908Z,68.53
2023-03-30T18:46:57.669Z,68.55
2023-03-30T18:51:59.435Z,68.52
2023-03-30T18:57:01.433Z,68.48
2023-03-30T19:02:03.332Z,68.48
2023-03-30T19:07:05.919Z,68.24
2023-03-30T19:12:12.458Z,68.46
2023-03-30T19:17:15.804Z,68.49
2023-03-30T19:22:17.592Z,68.53
2023-03-30T19:27:19.386Z,68.60
2023-03-30T19:32:21.563Z,68.67
2023-03-30T19:37:23.768Z,68.63
2023-03-30T19:42:26.787Z,68.66
2023-03-30T19:47:33.552Z,68.80
2023-03-30T19:52:35.540Z,68.78
2023-03-30T19:57:38.136Z,68.80
2023-03-30T20:02:41.365Z,68.81
2023-03-30T20:07:45.481Z,68.69
2023-03-30T20:12:49.566Z,68.61
2023-03-30T20:17:56.534Z,68.79
2023-03-30T20:22:59.649Z,68.78
2023-03-30T20:28:01.490Z,68.79
2023-03-30T20:33:08.159Z,68.69
2023-03-30T20:38:11.115Z,68.72
2023-03-30T20:43:12.985Z,68.80
2023-03-30T20:48:27.743Z,68.81
2023-03-30T20:53:30.892Z,68.89
2023-03-30T20:58:32.705Z,68.77
2023-03-30T21:03:35.514Z,68.89
2023-03-30T21:08:37.300Z,69.02
2023-03-30T21:13:39.142Z,69.00
2023-03-30T21:18:41.315Z,69.07
2023-03-30T21:23:44.282Z,69.20
2023-03-30T21:28:46.202Z,69.22
2023-03-30T21:33:48.102Z,69.28
2023-03-30T21:38:50.104Z,69.34
2023-03-30T21:43:52.220Z,69.38
2023-03-30T21:48:54.661Z,69.40
2023-03-30T21:53:57.954Z,69.30
2023-03-30T21:58:59.893Z,69.46
2023-03-30T22:04:03.239Z,69.54
2023-03-30T22:09:06.552Z,69.51
2023-03-30T22:14:08.487Z,69.45
2023-03-30T22:19:10.306Z,69.49
2023-03-30T22:24:12.171Z,69.48
2023-03-30T22:29:14.076Z,69.33
2023-03-30T22:34:16.360Z,69.46
2023-03-30T22:39:18.378Z,69.64
2023-03-30T22:44:20.717Z,69.72
2023-03-30T22:49:24.814Z,69.58
2023-03-30T22:54:26.705Z,69.83
2023-03-30T22:59:29.859Z,69.89
2023-03-30T23:04:31.689Z,70.06
2023-03-30T23:09:33.842Z,70.04
2023-03-30T23:14:37.964Z,69.98
2023-03-30T23:19:40.323Z,70.28
2023-03-30T23:24:42.937Z,70.14
2023-03-30T23:29:45.117Z,69.92
2023-03-30T23:34:47.181Z,70.04
2023-03-30T23:39:49.253Z,70.51
2023-03-30T23:44:51.818Z,70.35
2023-03-30T23:49:53.679Z,70.41
2023-03-30T23:54:55.527Z,70.43
2023-03-30T23:59:57.398Z,70.39
